createdAt,value
2024-02-04T00:02:15.221Z,22.52
2024-02-04T00:04:42.414Z,14.65
2024-02-04T00:07:09.375Z,14.48
2024-02-04T00:09:37.187Z,12.60
2024-02-04T00:12:05.368Z,13.13
2024-02-04T00:14:33.011Z,12.32
2024-02-04T00:17:00.129Z,11.73
2024-02-04T00:19:27.861Z,12.73
2024-02-04T00:21:55.143Z,11.57
2024-02-04T00:24:22.381Z,10.13
2024-02-04T00:26:49.423Z,13.10
2024-02-04T00:29:16.296Z,9.98
2024-02-04T00:31:43.117Z,12.68
2024-02-04T00:34:10.036Z,12.02
2024-02-04T00:36:36.885Z,10.07
2024-02-04T00:39:03.793Z,10.95
2024-02-04T00:41:31.161Z,10.40
2024-02-04T00:43:57.931Z,9.15
2024-02-04T00:46:24.813Z,9.00
2024-02-04T00:48:51.754Z,8.40
2024-02-04T00:51:18.816Z,8.50
2024-02-04T00:53:45.580Z,8.02
2024-02-04T00:56:12.765Z,8.48
2024-02-04T00:58:40.116Z,8.77
2024-02-04T01:01:07.035Z,8.32
2024-02-04T01:03:34.629Z,8.95
2024-02-04T01:06:01.651Z,9.40
2024-02-04T01:08:28.467Z,8.40
2024-02-04T01:10:55.165Z,8.93
2024-02-04T01:13:22.026Z,8.77
2024-02-04T01:15:48.818Z,9.30
2024-02-04T01:18:15.745Z,9.57
2024-02-04T01:20:42.634Z,9.40
2024-02-04T01:23:09.942Z,9.52
2024-02-04T01:25:38.488Z,9.05
2024-02-04T01:28:06.744Z,8.68
2024-02-04T01:30:33.545Z,9.18
2024-02-04T01:33:00.415Z,8.77
2024-02-04T01:35:27.395Z,8.70
2024-02-04T01:37:54.215Z,9.10
2024-02-04T01:40:21.480Z,8.80
2024-02-04T01:42:49.492Z,8.75
2024-02-04T01:45:16.627Z,9.13
2024-02-04T01:47:43.896Z,9.13
2024-02-04T01:50:11.047Z,9.15
2024-02-04T01:52:40.569Z,9.27
2024-02-04T01:55:07.710Z,8.50
2024-02-04T01:57:37.722Z,8.00
2024-02-04T02:00:05.645Z,8.85
2024-02-04T02:02:35.319Z,8.68
2024-02-04T02:05:02.637Z,8.25
2024-02-04T02:07:29.911Z,8.20
2024-02-04T02:09:57.400Z,8.10
2024-02-04T02:12:28.063Z,8.25
2024-02-04T02:15:02.120Z,8.45
2024-02-04T02:17:45.422Z,7.80
2024-02-04T02:20:22.949Z,8.13
2024-02-04T02:22:50.634Z,8.05
2024-02-04T02:25:20.737Z,8.38
2024-02-04T02:27:49.427Z,7.82
2024-02-04T02:30:17.716Z,7.70
2024-02-04T02:32:46.191Z,7.30
2024-02-04T02:35:17.273Z,8.60
2024-02-04T02:37:57.839Z,7.35
2024-02-04T02:40:44.217Z,7.15
2024-02-04T02:43:12.774Z,8.23
2024-02-04T02:45:42.958Z,8.05
2024-02-04T02:48:11.499Z,7.28
2024-02-04T02:50:38.999Z,7.65
2024-02-04T02:53:06.286Z,7.55
2024-02-04T02:55:33.023Z,7.53
2024-02-04T02:57:59.955Z,7.53
2024-02-04T03:00:26.858Z,7.90
2024-02-04T03:02:53.775Z,8.57
2024-02-04T03:05:20.706Z,8.50
2024-02-04T03:07:47.540Z,8.55
2024-02-04T03:10:14.633Z,8.27
2024-02-04T03:12:41.569Z,8.07
2024-02-04T03:15:08.776Z,7.22
2024-02-04T03:17:35.506Z,7.38
2024-02-04T03:20:02.513Z,6.75
2024-02-04T03:22:29.482Z,5.82
2024-02-04T03:24:56.240Z,5.75
2024-02-04T03:27:23.168Z,6.10
2024-02-04T03:29:49.921Z,5.75
2024-02-04T03:32:16.827Z,5.28
2024-02-04T03:34:43.780Z,5.40
2024-02-04T03:37:11.059Z,5.35
2024-02-04T03:39:37.941Z,5.50
2024-02-04T03:42:05.268Z,5.43
2024-02-04T03:44:32.010Z,5.80
2024-02-04T03:46:58.728Z,5.32
2024-02-04T03:49:25.662Z,5.32
2024-02-04T03:51:52.422Z,5.05
2024-02-04T03:54:20.583Z,5.63
2024-02-04T03:56:47.443Z,5.25
2024-02-04T03:59:14.425Z,5.30
2024-02-04T04:01:41.401Z,5.60
2024-02-04T04:04:08.626Z,5.55
2024-02-04T04:06:35.616Z,6.20
2024-02-04T04:09:02.388Z,5.40
2024-02-04T04:11:29.113Z,5.20
2024-02-04T04:13:55.950Z,5.78
2024-02-04T04:16:23.651Z,5.18
2024-02-04T04:18:50.958Z,5.18
2024-02-04T04:21:18.088Z,4.95
2024-02-04T04:23:45.361Z,5.15
2024-02-04T04:26:12.152Z,5.72
2024-02-04T04:28:39.134Z,5.68
2024-02-04T04:31:06.112Z,5.30
2024-02-04T04:33:33.282Z,4.95
2024-02-04T04:36:00.365Z,5.10
2024-02-04T04:38:27.104Z,6.18
2024-02-04T04:40:53.885Z,4.95
2024-02-04T04:43:20.807Z,5.55
2024-02-04T04:45:47.530Z,5.65
2024-02-04T04:48:14.495Z,5.72
2024-02-04T04:50:41.307Z,5.78
2024-02-04T04:53:08.163Z,5.13
2024-02-04T04:55:34.910Z,5.43
2024-02-04T04:58:01.813Z,5.22
2024-02-04T05:00:28.743Z,4.93
2024-02-04T05:02:55.595Z,5.40
2024-02-04T05:05:22.418Z,5.43
2024-02-04T05:07:49.472Z,5.57
2024-02-04T05:10:16.318Z,5.80
2024-02-04T05:12:43.061Z,5.22
2024-02-04T05:15:10.259Z,5.30
2024-02-04T05:17:37.048Z,5.60
2024-02-04T05:20:04.522Z,5.43
2024-02-04T05:22:31.916Z,6.22
2024-02-04T05:24:59.147Z,5.85
2024-02-04T05:27:26.201Z,5.70
2024-02-04T05:29:52.919Z,6.00
2024-02-04T05:32:19.688Z,5.82
2024-02-04T05:34:46.683Z,5.97
2024-02-04T05:37:13.619Z,5.43
2024-02-04T05:39:40.724Z,6.05
2024-02-04T05:42:07.485Z,6.32
2024-02-04T05:44:34.301Z,5.45
2024-02-04T05:47:01.104Z,5.45
2024-02-04T05:49:28.040Z,5.25
2024-02-04T05:51:55.006Z,6.20
2024-02-04T05:54:21.866Z,6.10
2024-02-04T05:56:48.643Z,5.38
2024-02-04T05:59:17.122Z,5.68
2024-02-04T06:01:44.503Z,5.88
2024-02-04T06:04:11.368Z,5.82
2024-02-04T06:06:38.383Z,6.05
2024-02-04T06:09:05.353Z,6.05
2024-02-04T06:11:32.097Z,7.10
2024-02-04T06:13:58.878Z,5.97
2024-02-04T06:16:25.564Z,6.60
2024-02-04T06:18:56.776Z,7.50
2024-02-04T06:21:23.883Z,6.07
2024-02-04T06:23:50.688Z,5.97
2024-02-04T06:26:17.452Z,6.13
2024-02-04T06:28:47.473Z,5.90
2024-02-04T06:31:14.833Z,5.70
2024-02-04T06:33:41.854Z,5.95
2024-02-04T06:36:11.844Z,5.90
2024-02-04T06:38:38.639Z,6.05
2024-02-04T06:41:05.533Z,6.78
2024-02-04T06:43:35.605Z,6.65
2024-02-04T06:46:03.977Z,5.82
2024-02-04T06:48:30.904Z,5.55
2024-02-04T06:50:57.817Z,5.38
2024-02-04T06:53:24.596Z,5.80
2024-02-04T06:55:51.306Z,5.60
2024-02-04T06:58:18.018Z,5.85
2024-02-04T07:00:44.897Z,6.70
2024-02-04T07:03:11.704Z,6.10
2024-02-04T07:05:38.875Z,5.85
2024-02-04T07:08:05.731Z,6.32
2024-02-04T07:10:32.479Z,6.45
2024-02-04T07:12:59.512Z,5.30
2024-02-04T07:15:26.440Z,5.47
2024-02-04T07:17:53.262Z,4.90
2024-02-04T07:20:21.103Z,4.93
2024-02-04T07:22:48.073Z,5.18
2024-02-04T07:25:15.131Z,4.97
2024-02-04T07:27:42.115Z,6.50
2024-02-04T07:30:09.378Z,11.70
2024-02-04T07:32:39.152Z,23.10
2024-02-04T07:35:07.399Z,15.88
2024-02-04T07:37:34.332Z,28.05
2024-02-04T07:40:02.286Z,9.25
2024-02-04T07:42:29.357Z,6.88
2024-02-04T07:44:56.143Z,5.60
2024-02-04T07:47:23.087Z,5.40
2024-02-04T07:49:50.700Z,5.07
2024-02-04T07:52:17.913Z,5.65
2024-02-04T07:54:45.020Z,5.80
2024-02-04T07:57:11.801Z,4.55
2024-02-04T07:59:38.601Z,6.75
2024-02-04T08:02:05.995Z,6.35
2024-02-04T08:04:32.836Z,16.63
2024-02-04T08:06:59.791Z,8.32
2024-02-04T08:09:26.752Z,8.27
2024-02-04T08:11:54.496Z,6.97
2024-02-04T08:14:22.609Z,10.95
2024-02-04T08:16:49.651Z,8.48
2024-02-04T08:19:16.647Z,7.30
2024-02-04T08:21:43.530Z,6.75
2024-02-04T08:24:10.355Z,5.60
2024-02-04T08:26:37.104Z,6.20
2024-02-04T08:29:03.856Z,6.18
2024-02-04T08:31:33.000Z,6.45
2024-02-04T08:33:59.810Z,6.70
2024-02-04T08:36:26.628Z,6.00
2024-02-04T08:38:53.339Z,7.45
2024-02-04T08:41:20.728Z,6.53
2024-02-04T08:43:47.801Z,5.43
2024-02-04T08:46:15.004Z,5.43
2024-02-04T08:48:43.541Z,5.75
2024-02-04T08:51:14.644Z,4.80
2024-02-04T08:53:41.629Z,6.20
2024-02-04T08:56:08.530Z,6.00
2024-02-04T08:58:38.641Z,6.95
2024-02-04T09:01:07.078Z,7.05
2024-02-04T09:03:35.022Z,7.00
2024-02-04T09:06:02.124Z,8.13
2024-02-04T09:08:28.911Z,6.97
2024-02-04T09:10:55.722Z,12.38
2024-02-04T09:13:22.629Z,15.85
2024-02-04T09:15:54.008Z,6.68
2024-02-04T09:18:21.755Z,4.97
2024-02-04T09:20:49.357Z,5.78
2024-02-04T09:23:16.234Z,7.57
2024-02-04T09:25:43.134Z,9.13
2024-02-04T09:28:10.056Z,7.18
2024-02-04T09:30:37.079Z,5.50
2024-02-04T09:33:04.621Z,6.72
2024-02-04T09:35:31.632Z,7.15
2024-02-04T09:37:58.576Z,8.45
2024-02-04T09:40:25.549Z,6.22
2024-02-04T09:42:53.448Z,8.50
2024-02-04T09:45:20.879Z,7.18
2024-02-04T09:47:48.501Z,9.50
2024-02-04T09:50:18.707Z,5.95
2024-02-04T09:52:52.005Z,4.78
2024-02-04T09:55:22.758Z,4.90
2024-02-04T09:57:49.752Z,5.03
2024-02-04T10:00:20.646Z,4.95
2024-02-04T10:02:49.405Z,5.35
2024-02-04T10:05:16.990Z,4.85
2024-02-04T10:07:44.355Z,4.65
2024-02-04T10:10:12.125Z,5.35
2024-02-04T10:12:39.967Z,6.00
2024-02-04T10:15:07.687Z,5.60
2024-02-04T10:17:34.530Z,5.55
2024-02-04T10:20:02.428Z,5.63
2024-02-04T10:22:29.901Z,6.80
2024-02-04T10:25:08.397Z,6.03
2024-02-04T10:27:37.672Z,4.80
2024-02-04T10:30:05.725Z,8.27
2024-02-04T10:32:32.646Z,7.45
2024-02-04T10:35:00.761Z,5.65
2024-02-04T10:37:30.440Z,4.95
2024-02-04T10:39:58.090Z,5.50
2024-02-04T10:42:29.426Z,5.18
2024-02-04T10:44:58.352Z,5.75
2024-02-04T10:47:30.766Z,6.00
2024-02-04T10:50:00.877Z,5.47
2024-02-04T10:52:42.716Z,5.95
2024-02-04T10:55:11.849Z,8.05
2024-02-04T10:57:40.353Z,5.30
2024-02-04T11:00:12.905Z,5.22
2024-02-04T11:02:41.353Z,5.30
2024-02-04T11:05:10.808Z,5.30
2024-02-04T11:07:38.577Z,5.85
2024-02-04T11:10:06.839Z,6.35
2024-02-04T11:12:35.650Z,6.88
2024-02-04T11:15:05.965Z,7.00
2024-02-04T11:17:54.640Z,6.28
2024-02-04T11:20:40.002Z,4.50
2024-02-04T11:23:34.636Z,6.90
2024-02-04T11:26:02.062Z,6.88
2024-02-04T11:28:29.577Z,8.82
2024-02-04T11:30:56.890Z,5.00
2024-02-04T11:33:24.300Z,5.00
2024-02-04T11:36:04.086Z,5.78
2024-02-04T11:38:32.627Z,5.20
2024-02-04T11:40:59.690Z,9.77
2024-02-04T11:43:27.147Z,7.50
2024-02-04T11:45:57.864Z,7.75
2024-02-04T11:48:32.326Z,6.78
2024-02-04T11:51:03.715Z,7.57
2024-02-04T11:53:33.438Z,6.38
2024-02-04T11:56:02.135Z,7.85
2024-02-04T11:58:30.311Z,6.57
2024-02-04T12:01:01.050Z,5.38
2024-02-04T12:03:31.958Z,9.77
2024-02-04T12:05:59.532Z,8.18
2024-02-04T12:08:28.601Z,5.47
2024-02-04T12:10:55.873Z,9.38
2024-02-04T12:13:22.656Z,6.85
2024-02-04T12:15:52.518Z,5.47
2024-02-04T12:18:21.436Z,6.13
2024-02-04T12:20:52.405Z,8.18
2024-02-04T12:23:19.992Z,6.15
2024-02-04T12:25:47.397Z,6.22
2024-02-04T12:28:15.274Z,6.85
2024-02-04T12:30:42.257Z,6.85
2024-02-04T12:33:10.061Z,5.88
2024-02-04T12:35:37.028Z,4.97
2024-02-04T12:38:04.600Z,6.25
2024-02-04T12:40:32.667Z,11.82
2024-02-04T12:43:05.702Z,6.40
2024-02-04T12:45:34.195Z,9.75
2024-02-04T12:48:02.332Z,7.93
2024-02-04T12:50:29.710Z,5.55
2024-02-04T12:53:05.502Z,6.47
2024-02-04T12:55:33.168Z,5.88
2024-02-04T12:58:05.065Z,6.82
2024-02-04T13:00:33.657Z,5.78
2024-02-04T13:03:03.594Z,5.35
2024-02-04T13:05:33.948Z,5.20
2024-02-04T13:08:03.780Z,5.68
2024-02-04T13:10:35.896Z,5.28
2024-02-04T13:13:10.297Z,5.15
2024-02-04T13:15:42.137Z,6.30
2024-02-04T13:18:10.459Z,18.10
2024-02-04T13:20:37.303Z,11.07
2024-02-04T13:23:06.663Z,6.40
2024-02-04T13:25:34.542Z,6.13
2024-02-04T13:28:01.930Z,4.65
2024-02-04T13:30:28.874Z,4.57
2024-02-04T13:32:57.382Z,4.85
2024-02-04T13:35:25.297Z,4.90
2024-02-04T13:37:53.338Z,5.20
2024-02-04T13:40:21.178Z,6.30
2024-02-04T13:42:49.061Z,6.60
2024-02-04T13:45:16.491Z,6.78
2024-02-04T13:47:43.681Z,5.57
2024-02-04T13:50:14.319Z,5.57
2024-02-04T13:52:41.866Z,6.03
2024-02-04T13:55:09.488Z,6.28
2024-02-04T13:57:37.013Z,4.88
2024-02-04T14:00:09.236Z,6.32
2024-02-04T14:02:36.292Z,6.00
2024-02-04T14:05:03.443Z,6.13
2024-02-04T14:07:30.386Z,6.68
2024-02-04T14:09:57.342Z,6.57
2024-02-04T14:12:24.653Z,6.53
2024-02-04T14:14:51.566Z,8.23
2024-02-04T14:17:18.295Z,7.13
2024-02-04T14:19:47.267Z,6.00
2024-02-04T14:22:14.287Z,7.22
2024-02-04T14:24:41.144Z,7.25
2024-02-04T14:27:08.094Z,7.00
2024-02-04T14:29:34.861Z,6.90
2024-02-04T14:32:02.277Z,8.45
2024-02-04T14:34:29.606Z,7.18
2024-02-04T14:36:56.661Z,8.13
2024-02-04T14:39:23.469Z,7.15
2024-02-04T14:41:50.209Z,6.63
2024-02-04T14:44:16.978Z,6.13
2024-02-04T14:46:44.319Z,7.45
2024-02-04T14:49:11.247Z,6.25
2024-02-04T14:51:41.549Z,7.40
2024-02-04T14:54:11.308Z,6.95
2024-02-04T14:56:42.031Z,7.70
2024-02-04T14:59:20.602Z,6.65
2024-02-04T15:01:50.124Z,7.10
2024-02-04T15:04:17.456Z,7.20
2024-02-04T15:06:45.528Z,7.13
2024-02-04T15:09:12.711Z,7.07
2024-02-04T15:11:39.751Z,8.85
2024-02-04T15:14:07.355Z,7.38
2024-02-04T15:16:35.756Z,7.63
2024-02-04T15:19:03.935Z,8.73
2024-02-04T15:21:31.583Z,6.60
2024-02-04T15:24:04.802Z,7.82
2024-02-04T15:26:37.486Z,7.25
2024-02-04T15:29:05.143Z,7.32
2024-02-04T15:31:34.717Z,8.90
2024-02-04T15:34:03.539Z,7.35
2024-02-04T15:36:30.342Z,7.05
2024-02-04T15:38:57.050Z,9.07
2024-02-04T15:41:23.778Z,8.45
2024-02-04T15:43:50.626Z,9.00
2024-02-04T15:46:19.482Z,8.88
2024-02-04T15:48:48.885Z,10.50
2024-02-04T15:51:15.797Z,9.63
2024-02-04T15:53:43.061Z,9.98
2024-02-04T15:56:11.501Z,11.23
2024-02-04T15:58:39.562Z,10.48
2024-02-04T16:01:18.711Z,8.32
2024-02-04T16:03:45.829Z,8.40
2024-02-04T16:06:13.213Z,9.13
2024-02-04T16:08:40.311Z,7.75
2024-02-04T16:11:17.507Z,9.02
2024-02-04T16:13:47.139Z,8.82
2024-02-04T16:16:21.638Z,8.40
2024-02-04T16:18:49.184Z,8.10
2024-02-04T16:21:16.035Z,8.93
2024-02-04T16:23:43.508Z,8.60
2024-02-04T16:26:10.888Z,8.38
2024-02-04T16:28:39.608Z,8.13
2024-02-04T16:31:06.645Z,8.18
2024-02-04T16:33:33.557Z,10.35
2024-02-04T16:36:00.814Z,11.63
2024-02-04T16:38:28.854Z,12.02
2024-02-04T16:40:56.309Z,12.05
2024-02-04T16:43:24.458Z,11.70
2024-02-04T16:45:51.546Z,10.50
2024-02-04T16:48:18.780Z,11.27
2024-02-04T16:50:47.340Z,11.70
2024-02-04T16:53:15.663Z,10.68
2024-02-04T16:55:42.416Z,8.95
2024-02-04T16:58:09.241Z,9.73
2024-02-04T17:00:36.425Z,9.65
2024-02-04T17:03:05.145Z,9.77
2024-02-04T17:05:41.687Z,11.65
2024-02-04T17:08:13.693Z,11.95
2024-02-04T17:10:41.423Z,11.63
2024-02-04T17:13:08.579Z,18.33
2024-02-04T17:15:35.741Z,15.02
2024-02-04T17:18:04.185Z,10.00
2024-02-04T17:20:42.168Z,9.73
2024-02-04T17:23:11.332Z,9.35
2024-02-04T17:25:39.686Z,8.65
2024-02-04T17:28:07.348Z,7.97
2024-02-04T17:30:34.657Z,8.07
2024-02-04T17:33:01.935Z,7.25
2024-02-04T17:35:31.446Z,8.68
2024-02-04T17:38:01.987Z,9.45
2024-02-04T17:40:32.594Z,7.78
2024-02-04T17:43:00.716Z,8.13
2024-02-04T17:45:27.683Z,8.32
2024-02-04T17:47:54.490Z,8.63
2024-02-04T17:50:22.605Z,8.25
2024-02-04T17:52:50.688Z,8.50
2024-02-04T17:55:17.517Z,8.60
2024-02-04T17:57:44.456Z,10.02
2024-02-04T18:00:11.663Z,9.10
2024-02-04T18:02:46.393Z,8.20
2024-02-04T18:05:15.441Z,8.48
2024-02-04T18:07:44.086Z,8.10
2024-02-04T18:10:11.566Z,8.55
2024-02-04T18:12:39.716Z,8.38
2024-02-04T18:15:07.285Z,8.75
2024-02-04T18:17:35.610Z,9.43
2024-02-04T18:20:06.986Z,10.00
2024-02-04T18:22:35.198Z,9.02
2024-02-04T18:25:02.534Z,8.65
2024-02-04T18:27:29.922Z,8.82
2024-02-04T18:29:58.222Z,8.98
2024-02-04T18:32:25.259Z,9.02
2024-02-04T18:34:56.087Z,9.20
2024-02-04T18:37:24.339Z,9.80
2024-02-04T18:39:53.194Z,9.30
2024-02-04T18:42:20.065Z,9.52
2024-02-04T18:44:48.804Z,9.70
2024-02-04T18:47:15.701Z,10.60
2024-02-04T18:49:43.576Z,9.32
2024-02-04T18:52:12.180Z,10.68
2024-02-04T18:54:38.999Z,13.50
2024-02-04T18:57:06.048Z,13.57
2024-02-04T18:59:36.884Z,16.15
2024-02-04T19:02:04.101Z,15.35
2024-02-04T19:04:31.422Z,13.73
2024-02-04T19:07:00.728Z,11.88
2024-02-04T19:09:29.100Z,11.98
2024-02-04T19:11:56.078Z,10.95
2024-02-04T19:14:23.862Z,10.55
2024-02-04T19:16:52.584Z,11.52
2024-02-04T19:19:19.557Z,10.30
2024-02-04T19:21:47.291Z,9.35
2024-02-04T19:24:17.011Z,9.05
2024-02-04T19:26:44.071Z,9.65
2024-02-04T19:29:10.911Z,9.38
2024-02-04T19:31:39.641Z,9.18
2024-02-04T19:34:06.480Z,9.00
2024-02-04T19:36:33.384Z,8.82
2024-02-04T19:39:00.091Z,9.75
2024-02-04T19:41:26.941Z,9.32
2024-02-04T19:43:54.505Z,9.50
2024-02-04T19:46:21.427Z,9.60
2024-02-04T19:48:48.309Z,9.60
2024-02-04T19:51:15.579Z,9.27
2024-02-04T19:53:42.376Z,10.45
2024-02-04T19:56:09.328Z,8.73
2024-02-04T19:58:36.160Z,10.43
2024-02-04T20:01:03.791Z,10.68
2024-02-04T20:03:30.695Z,11.88
2024-02-04T20:05:57.698Z,13.32
2024-02-04T20:08:24.445Z,11.40
2024-02-04T20:10:51.250Z,11.43
2024-02-04T20:13:18.304Z,11.02
2024-02-04T20:15:45.871Z,10.57
2024-02-04T20:18:14.624Z,11.07
2024-02-04T20:20:41.530Z,11.38
2024-02-04T20:23:08.220Z,11.18
2024-02-04T20:25:35.015Z,12.10
2024-02-04T20:28:01.805Z,11.15
2024-02-04T20:30:31.726Z,11.30
2024-02-04T20:32:58.854Z,11.82
2024-02-04T20:35:27.794Z,11.23
2024-02-04T20:37:58.956Z,10.60
2024-02-04T20:40:26.360Z,9.10
2024-02-04T20:42:53.441Z,10.20
2024-02-04T20:45:21.043Z,10.32
2024-02-04T20:47:49.631Z,9.70
2024-02-04T20:50:17.061Z,10.45
2024-02-04T20:52:44.069Z,10.38
2024-02-04T20:55:10.989Z,10.60
2024-02-04T20:57:38.585Z,10.70
2024-02-04T21:00:08.041Z,11.27
2024-02-04T21:02:35.315Z,11.90
2024-02-04T21:05:02.209Z,12.15
2024-02-04T21:07:29.257Z,11.93
2024-02-04T21:09:56.305Z,12.15
2024-02-04T21:12:23.443Z,12.55
2024-02-04T21:14:50.457Z,12.38
2024-02-04T21:17:17.285Z,12.00
2024-02-04T21:19:46.336Z,11.75
2024-02-04T21:22:13.515Z,12.23
2024-02-04T21:24:40.615Z,10.57
2024-02-04T21:27:08.336Z,10.70
2024-02-04T21:29:35.342Z,11.32
2024-02-04T21:32:02.239Z,11.18
2024-02-04T21:34:29.518Z,10.60
2024-02-04T21:36:56.608Z,10.60
2024-02-04T21:39:23.414Z,10.93
2024-02-04T21:41:50.669Z,10.48
2024-02-04T21:44:17.771Z,11.10
2024-02-04T21:46:49.227Z,10.63
2024-02-04T21:49:16.380Z,10.43
2024-02-04T21:51:43.352Z,10.70
2024-02-04T21:54:10.235Z,10.30
2024-02-04T21:56:37.415Z,11.07
2024-02-04T21:59:04.449Z,10.90
2024-02-04T22:01:31.388Z,10.75
2024-02-04T22:03:59.087Z,10.93
2024-02-04T22:06:26.093Z,10.48
2024-02-04T22:08:52.977Z,8.90
2024-02-04T22:11:19.736Z,8.80
2024-02-04T22:13:46.426Z,8.57
2024-02-04T22:16:13.244Z,10.02
2024-02-04T22:18:39.973Z,10.05
2024-02-04T22:21:08.031Z,9.40
2024-02-04T22:23:34.787Z,11.02
2024-02-04T22:26:01.569Z,12.57
2024-02-04T22:28:28.277Z,11.68
2024-02-04T22:30:55.077Z,10.63
2024-02-04T22:33:21.816Z,10.90
2024-02-04T22:35:48.580Z,11.75
2024-02-04T22:38:15.383Z,11.27
2024-02-04T22:40:42.386Z,11.48
2024-02-04T22:43:09.270Z,11.38
2024-02-04T22:45:36.499Z,11.48
2024-02-04T22:48:03.548Z,11.23
2024-02-04T22:50:30.308Z,8.75
2024-02-04T22:52:57.032Z,7.78
2024-02-04T22:55:23.853Z,8.85
2024-02-04T22:57:50.658Z,9.18
2024-02-04T23:00:30.013Z,8.18
2024-02-04T23:02:58.919Z,7.97
2024-02-04T23:05:27.447Z,8.23
2024-02-04T23:07:59.782Z,7.28
2024-02-04T23:10:28.089Z,7.97
2024-02-04T23:12:56.233Z,8.63
2024-02-04T23:15:24.844Z,9.85
2024-02-04T23:17:51.972Z,8.68
2024-02-04T23:20:20.686Z,7.80
2024-02-04T23:22:47.745Z,8.55
2024-02-04T23:25:15.109Z,8.32
2024-02-04T23:27:42.115Z,8.65
2024-02-04T23:30:09.922Z,8.15
2024-02-04T23:32:36.666Z,8.93
2024-02-04T23:35:05.319Z,9.02
2024-02-04T23:37:34.726Z,9.25
2024-02-04T23:40:01.984Z,9.32
2024-02-04T23:42:28.762Z,9.70
2024-02-04T23:44:55.694Z,9.70
2024-02-04T23:47:22.770Z,8.30
2024-02-04T23:49:49.645Z,7.90
2024-02-04T23:52:16.504Z,8.95
2024-02-04T23:54:43.370Z,8.68
2024-02-04T23:57:10.135Z,8.43
2024-02-04T23:59:36.976Z,8.15
